createdAt,value
2019-03-25T00:00:42.211Z,34.00
2019-03-25T00:03:15.597Z,34.13
2019-03-25T00:05:48.436Z,36.55
2019-03-25T00:08:19.447Z,37.08
2019-03-25T00:10:50.762Z,38.13
2019-03-25T00:13:22.873Z,38.23
2019-03-25T00:15:56.418Z,40.52
2019-03-25T00:18:28.531Z,40.65
2019-03-25T00:21:00.135Z,44.03
2019-03-25T00:23:31.243Z,44.45
2019-03-25T00:26:02.544Z,48.78
2019-03-25T00:28:35.415Z,46.95
2019-03-25T00:31:06.763Z,48.65
2019-03-25T00:33:37.955Z,49.13
2019-03-25T00:36:09.224Z,50.88
2019-03-25T00:38:40.271Z,53.08
2019-03-25T00:41:11.291Z,53.25
2019-03-25T00:43:42.524Z,54.80
2019-03-25T00:46:13.708Z,55.20
2019-03-25T00:48:44.772Z,53.87
2019-03-25T00:51:16.975Z,53.17
2019-03-25T00:53:48.164Z,54.58
2019-03-25T00:56:19.407Z,52.20
2019-03-25T00:58:50.575Z,50.85
2019-03-25T01:01:21.807Z,50.45
2019-03-25T01:03:52.894Z,52.40
2019-03-25T01:06:24.083Z,50.75
2019-03-25T01:08:55.396Z,51.05
2019-03-25T01:11:26.526Z,52.85
2019-03-25T01:13:57.835Z,53.50
2019-03-25T01:16:29.268Z,68.07
2019-03-25T01:19:00.526Z,60.05
2019-03-25T01:21:31.733Z,58.28
2019-03-25T01:24:02.834Z,57.00
2019-03-25T01:26:34.111Z,56.10
2019-03-25T01:29:05.202Z,58.85
2019-03-25T01:31:36.485Z,59.38
2019-03-25T01:34:07.586Z,58.83
2019-03-25T01:36:38.857Z,59.67
2019-03-25T01:39:11.114Z,58.90
2019-03-25T01:41:42.155Z,58.05
2019-03-25T01:44:14.229Z,56.80
2019-03-25T01:46:46.522Z,56.77
2019-03-25T01:49:17.623Z,57.53
2019-03-25T01:51:48.809Z,55.58
2019-03-25T01:54:20.116Z,56.88
2019-03-25T01:56:52.407Z,55.78
2019-03-25T01:59:23.503Z,55.67
2019-03-25T02:01:54.622Z,55.63
2019-03-25T02:04:25.761Z,55.78
2019-03-25T02:06:56.797Z,56.85
2019-03-25T02:09:27.854Z,56.63
2019-03-25T02:11:59.306Z,55.78
2019-03-25T02:14:33.282Z,51.90
2019-03-25T02:17:04.439Z,55.43
2019-03-25T02:19:35.557Z,58.23
2019-03-25T02:22:06.659Z,58.10
2019-03-25T02:24:37.743Z,55.70
2019-03-25T02:27:09.046Z,55.40
2019-03-25T02:29:40.068Z,55.63
2019-03-25T02:32:13.921Z,54.48
2019-03-25T02:34:44.076Z,56.18
2019-03-25T02:37:15.303Z,57.13
2019-03-25T02:39:46.741Z,54.03
2019-03-25T02:42:17.745Z,56.30
2019-03-25T02:44:48.898Z,55.88
2019-03-25T02:47:20.314Z,56.92
2019-03-25T02:49:51.427Z,53.78
2019-03-25T02:52:22.498Z,55.08
2019-03-25T02:54:53.597Z,55.40
2019-03-25T02:57:24.747Z,57.95
2019-03-25T02:59:55.844Z,56.18
2019-03-25T03:02:26.912Z,56.23
2019-03-25T03:04:58.064Z,55.58
2019-03-25T03:07:29.234Z,56.28
2019-03-25T03:10:00.614Z,57.95
2019-03-25T03:12:31.649Z,56.98
2019-03-25T03:15:02.749Z,55.70
2019-03-25T03:17:34.561Z,55.48
2019-03-25T03:20:07.173Z,55.20
2019-03-25T03:22:40.320Z,58.83
2019-03-25T03:25:11.483Z,57.73
2019-03-25T03:27:43.673Z,56.68
2019-03-25T03:30:15.160Z,57.50
2019-03-25T03:32:46.504Z,59.77
2019-03-25T03:35:17.880Z,57.85
2019-03-25T03:37:48.970Z,58.45
2019-03-25T03:40:20.080Z,57.27
2019-03-25T03:42:51.152Z,57.98
2019-03-25T03:45:22.295Z,56.58
2019-03-25T03:47:53.454Z,57.67
2019-03-25T03:50:26.382Z,57.05
2019-03-25T03:52:57.865Z,57.65
2019-03-25T03:55:29.033Z,57.53
2019-03-25T03:58:00.097Z,65.50
2019-03-25T04:00:32.843Z,61.85
2019-03-25T04:03:03.854Z,66.20
2019-03-25T04:05:34.997Z,64.85
2019-03-25T04:08:06.244Z,63.02
2019-03-25T04:10:37.375Z,65.35
2019-03-25T04:13:08.353Z,67.15
2019-03-25T04:15:39.730Z,64.97
2019-03-25T04:18:10.994Z,70.03
2019-03-25T04:20:42.020Z,67.12
2019-03-25T04:23:13.125Z,68.60
2019-03-25T04:25:44.177Z,69.27
2019-03-25T04:28:15.327Z,72.08
2019-03-25T04:30:46.436Z,73.65
2019-03-25T04:33:17.958Z,73.72
2019-03-25T04:35:49.027Z,75.35
2019-03-25T04:38:20.038Z,77.20
2019-03-25T04:40:51.199Z,77.90
2019-03-25T04:43:22.703Z,77.05
2019-03-25T04:45:53.993Z,76.80
2019-03-25T04:48:25.198Z,76.77
2019-03-25T04:50:56.379Z,76.50
2019-03-25T04:53:27.513Z,75.10
2019-03-25T04:56:01.912Z,78.00
2019-03-25T04:58:33.044Z,79.10
2019-03-25T05:01:04.119Z,78.42
2019-03-25T05:03:35.083Z,78.12
2019-03-25T05:06:07.262Z,76.77
2019-03-25T05:08:38.337Z,79.55
2019-03-25T05:11:11.779Z,77.53
2019-03-25T05:13:43.008Z,79.22
2019-03-25T05:16:15.197Z,81.08
2019-03-25T05:18:46.380Z,79.30
2019-03-25T05:21:17.667Z,77.53
2019-03-25T05:23:50.139Z,76.50
2019-03-25T05:26:21.350Z,74.95
2019-03-25T05:28:52.783Z,75.05
2019-03-25T05:31:24.978Z,71.47
2019-03-25T05:33:56.250Z,63.78
2019-03-25T05:36:27.716Z,63.25
2019-03-25T05:38:58.884Z,61.20
2019-03-25T05:41:29.851Z,62.58
2019-03-25T05:44:01.001Z,64.58
2019-03-25T05:46:32.234Z,56.53
2019-03-25T05:49:03.533Z,56.25
2019-03-25T05:51:34.730Z,52.88
2019-03-25T05:54:05.842Z,51.60
2019-03-25T05:56:36.951Z,45.60
2019-03-25T05:59:08.013Z,47.88
2019-03-25T06:01:39.093Z,47.73
2019-03-25T06:04:10.082Z,47.75
2019-03-25T06:06:41.207Z,45.92
2019-03-25T06:09:14.115Z,44.85
2019-03-25T06:11:45.219Z,45.83
2019-03-25T06:14:16.237Z,45.55
2019-03-25T06:16:47.472Z,46.53
2019-03-25T06:19:18.780Z,44.75
2019-03-25T06:21:51.055Z,47.23
2019-03-25T06:24:22.131Z,45.98
2019-03-25T06:26:53.349Z,43.08
2019-03-25T06:29:26.062Z,42.70
2019-03-25T06:31:57.187Z,45.23
2019-03-25T06:34:28.164Z,44.35
2019-03-25T06:37:01.183Z,44.58
2019-03-25T06:39:32.303Z,45.90
2019-03-25T06:42:03.465Z,44.63
2019-03-25T06:44:34.810Z,43.92
2019-03-25T06:47:05.983Z,41.92
2019-03-25T06:49:37.166Z,42.27
2019-03-25T06:52:08.284Z,43.85
2019-03-25T06:54:39.296Z,41.60
2019-03-25T06:57:10.361Z,59.05
2019-03-25T06:59:41.454Z,41.75
2019-03-25T07:02:12.495Z,43.70
2019-03-25T07:04:43.607Z,41.02
2019-03-25T07:07:14.691Z,41.95
2019-03-25T07:09:45.720Z,43.68
2019-03-25T07:12:16.957Z,40.48
2019-03-25T07:14:48.129Z,38.35
2019-03-25T07:17:21.410Z,39.08
2019-03-25T07:19:53.588Z,38.53
2019-03-25T07:22:24.751Z,37.67
2019-03-25T07:24:55.952Z,36.63
2019-03-25T07:27:36.377Z,37.40
2019-03-25T07:29:59.844Z,36.40
2019-03-25T07:32:30.998Z,36.33
2019-03-25T07:35:02.036Z,36.40
2019-03-25T07:37:33.126Z,44.25
2019-03-25T07:40:07.756Z,36.08
2019-03-25T07:42:39.010Z,37.78
2019-03-25T07:45:10.113Z,37.33
2019-03-25T07:47:41.330Z,36.75
2019-03-25T07:50:12.501Z,36.33
2019-03-25T07:52:43.726Z,35.48
2019-03-25T07:55:14.738Z,34.05
2019-03-25T07:57:48.609Z,33.65
2019-03-25T08:00:20.404Z,31.57
2019-03-25T08:02:51.581Z,32.90
2019-03-25T08:05:22.849Z,40.03
2019-03-25T08:07:53.890Z,28.20
2019-03-25T08:10:34.980Z,24.25
2019-03-25T08:13:06.063Z,17.62
2019-03-25T08:15:37.231Z,13.72
2019-03-25T08:18:08.398Z,13.00
2019-03-25T08:20:39.536Z,12.95
2019-03-25T08:23:10.697Z,11.57
2019-03-25T08:25:41.706Z,12.40
2019-03-25T08:28:12.969Z,12.10
2019-03-25T08:30:44.041Z,11.45
2019-03-25T08:33:15.158Z,11.57
2019-03-25T08:35:46.278Z,10.63
2019-03-25T08:38:17.514Z,11.03
2019-03-25T08:40:49.735Z,10.40
2019-03-25T08:43:21.320Z,10.40
2019-03-25T08:45:52.538Z,10.53
2019-03-25T08:48:24.145Z,10.43
2019-03-25T08:50:58.079Z,10.38
2019-03-25T08:53:29.300Z,11.15
2019-03-25T08:56:00.501Z,10.60
2019-03-25T08:58:31.715Z,11.28
2019-03-25T09:01:02.874Z,10.30
2019-03-25T09:03:33.975Z,11.10
2019-03-25T09:06:05.070Z,11.48
2019-03-25T09:08:36.305Z,12.75
2019-03-25T09:11:07.370Z,31.82
2019-03-25T09:13:38.509Z,11.80
2019-03-25T09:16:09.558Z,11.88
2019-03-25T09:18:40.967Z,11.63
2019-03-25T09:21:12.132Z,11.85
2019-03-25T09:23:43.160Z,12.70
2019-03-25T09:26:14.272Z,12.93
2019-03-25T09:28:45.260Z,11.90
2019-03-25T09:31:16.763Z,12.70
2019-03-25T09:33:49.439Z,10.98
2019-03-25T09:36:20.559Z,11.73
2019-03-25T09:38:51.687Z,11.60
2019-03-25T09:41:24.442Z,10.30
2019-03-25T09:43:55.499Z,10.53
2019-03-25T09:46:26.598Z,10.70
2019-03-25T09:48:57.771Z,10.75
2019-03-25T09:51:28.885Z,10.40
2019-03-25T09:53:59.965Z,9.68
2019-03-25T09:56:31.099Z,10.48
2019-03-25T09:59:02.335Z,9.98
2019-03-25T10:01:34.630Z,9.65
2019-03-25T10:04:05.826Z,9.55
2019-03-25T10:06:37.046Z,10.10
2019-03-25T10:09:09.823Z,10.08
2019-03-25T10:11:40.955Z,9.70
2019-03-25T10:14:11.981Z,10.18
2019-03-25T10:16:43.068Z,10.03
2019-03-25T10:19:14.095Z,10.28
2019-03-25T10:21:45.091Z,10.50
2019-03-25T10:24:17.314Z,10.65
2019-03-25T10:26:48.436Z,10.58
2019-03-25T10:29:19.598Z,9.90
2019-03-25T10:31:50.657Z,10.70
2019-03-25T10:34:21.913Z,10.58
2019-03-25T10:36:53.233Z,10.70
2019-03-25T10:39:24.323Z,10.43
2019-03-25T10:41:55.409Z,9.33
2019-03-25T10:44:26.590Z,10.53
2019-03-25T10:46:57.722Z,26.15
2019-03-25T10:49:28.983Z,10.23
2019-03-25T10:51:59.986Z,10.00
2019-03-25T10:54:31.181Z,9.48
2019-03-25T10:57:02.368Z,9.80
2019-03-25T10:59:33.501Z,10.20
2019-03-25T11:02:04.916Z,9.33
2019-03-25T11:04:36.028Z,9.43
2019-03-25T11:07:07.295Z,9.50
2019-03-25T11:09:41.052Z,9.30
2019-03-25T11:12:12.460Z,9.63
2019-03-25T11:14:43.615Z,9.13
2019-03-25T11:17:14.885Z,9.70
2019-03-25T11:19:45.895Z,9.85
2019-03-25T11:22:16.964Z,9.15
2019-03-25T11:24:48.145Z,9.53
2019-03-25T11:27:19.358Z,9.50
2019-03-25T11:29:50.514Z,9.20
2019-03-25T11:32:21.538Z,9.30
2019-03-25T11:34:52.744Z,9.13
2019-03-25T11:37:23.863Z,9.23
2019-03-25T11:39:55.012Z,9.38
2019-03-25T11:42:26.060Z,8.80
2019-03-25T11:44:57.349Z,8.83
2019-03-25T11:47:28.680Z,9.23
2019-03-25T11:50:00.317Z,9.10
2019-03-25T11:52:31.383Z,8.95
2019-03-25T11:55:02.660Z,9.35
2019-03-25T11:57:33.983Z,9.18
2019-03-25T12:00:10.430Z,9.75
2019-03-25T12:02:44.858Z,8.55
2019-03-25T12:05:16.172Z,8.85
2019-03-25T12:07:51.042Z,9.23
2019-03-25T12:10:24.116Z,9.23
2019-03-25T12:12:55.796Z,8.80
2019-03-25T12:15:26.986Z,8.95
2019-03-25T12:18:06.239Z,8.78
2019-03-25T12:20:38.724Z,8.65
2019-03-25T12:23:14.542Z,9.70
2019-03-25T12:25:48.273Z,8.80
2019-03-25T12:28:20.863Z,9.73
2019-03-25T12:31:01.331Z,8.60
2019-03-25T12:33:33.269Z,8.25
2019-03-25T12:36:04.730Z,8.58
2019-03-25T12:38:37.737Z,13.20
2019-03-25T12:41:09.034Z,18.45
2019-03-25T12:43:40.527Z,9.68
2019-03-25T12:46:11.667Z,10.50
2019-03-25T12:48:42.797Z,10.15
2019-03-25T12:51:14.075Z,9.83
2019-03-25T12:53:45.581Z,9.40
2019-03-25T12:56:16.807Z,9.85
2019-03-25T12:58:47.980Z,11.28
2019-03-25T13:01:23.587Z,12.13
2019-03-25T13:03:54.987Z,10.70
2019-03-25T13:06:26.137Z,10.65
2019-03-25T13:09:00.379Z,10.98
2019-03-25T13:11:31.774Z,10.70
2019-03-25T13:14:03.056Z,10.63
2019-03-25T13:16:34.368Z,11.12
2019-03-25T13:19:05.568Z,10.70
2019-03-25T13:21:36.922Z,10.82
2019-03-25T13:24:10.367Z,10.60
2019-03-25T13:26:41.631Z,9.85
2019-03-25T13:29:14.292Z,9.78
2019-03-25T13:31:45.642Z,10.18
2019-03-25T13:34:16.809Z,9.93
2019-03-25T13:36:47.966Z,9.43
2019-03-25T13:39:20.191Z,9.23
2019-03-25T13:41:51.394Z,8.63
2019-03-25T13:44:22.663Z,9.03
2019-03-25T13:46:54.518Z,7.92
2019-03-25T13:49:25.738Z,9.30
2019-03-25T13:51:56.918Z,9.65
2019-03-25T13:54:27.967Z,9.80
2019-03-25T13:57:04.089Z,9.58
2019-03-25T13:59:41.762Z,10.93
2019-03-25T14:02:12.885Z,12.03
2019-03-25T14:04:43.986Z,11.33
2019-03-25T14:07:16.004Z,11.78
2019-03-25T14:09:50.143Z,12.98
2019-03-25T14:12:21.568Z,16.52
2019-03-25T14:14:52.625Z,18.27
2019-03-25T14:17:23.845Z,17.75
2019-03-25T14:19:54.862Z,17.17
2019-03-25T14:22:26.052Z,15.05
2019-03-25T14:24:57.062Z,14.90
2019-03-25T14:27:28.225Z,14.55
2019-03-25T14:29:59.373Z,14.05
2019-03-25T14:32:30.603Z,14.38
2019-03-25T14:35:01.737Z,13.90
2019-03-25T14:37:34.777Z,13.55
2019-03-25T14:40:07.865Z,13.60
2019-03-25T14:42:45.500Z,13.03
2019-03-25T14:45:26.115Z,13.30
2019-03-25T14:47:53.614Z,12.53
2019-03-25T14:50:26.180Z,13.35
2019-03-25T14:52:57.499Z,12.90
2019-03-25T14:55:31.269Z,12.78
2019-03-25T14:58:02.553Z,12.75
2019-03-25T15:00:33.677Z,11.60
2019-03-25T15:03:05.044Z,11.60
2019-03-25T15:05:36.281Z,10.38
2019-03-25T15:08:07.300Z,10.45
2019-03-25T15:10:38.355Z,10.32
2019-03-25T15:13:09.496Z,11.15
2019-03-25T15:15:40.663Z,10.95
2019-03-25T15:18:15.821Z,12.40
2019-03-25T15:20:44.543Z,12.63
2019-03-25T15:23:15.771Z,12.53
2019-03-25T15:25:46.911Z,13.65
2019-03-25T15:28:18.035Z,13.05
2019-03-25T15:30:49.150Z,14.60
2019-03-25T15:33:20.259Z,14.35
2019-03-25T15:35:52.511Z,14.05
2019-03-25T15:38:25.597Z,15.40
2019-03-25T15:40:56.671Z,15.72
2019-03-25T15:43:28.841Z,16.62
2019-03-25T15:46:00.101Z,17.42
2019-03-25T15:48:32.516Z,15.25
2019-03-25T15:51:03.706Z,16.02
2019-03-25T15:53:34.921Z,17.95
2019-03-25T15:56:06.063Z,17.92
2019-03-25T15:58:37.217Z,18.37
2019-03-25T16:01:08.297Z,18.32
2019-03-25T16:03:39.466Z,18.60
2019-03-25T16:06:10.652Z,18.82
2019-03-25T16:08:41.739Z,18.73
2019-03-25T16:11:12.750Z,18.60
2019-03-25T16:13:43.832Z,18.77
2019-03-25T16:16:15.011Z,17.98
2019-03-25T16:18:47.293Z,18.35
2019-03-25T16:21:18.517Z,17.35
2019-03-25T16:23:50.459Z,15.85
2019-03-25T16:26:23.267Z,15.63
2019-03-25T16:28:56.222Z,14.80
2019-03-25T16:31:27.259Z,14.53
2019-03-25T16:34:00.013Z,14.50
2019-03-25T16:36:31.326Z,14.50
2019-03-25T16:39:05.626Z,14.65
2019-03-25T16:41:38.331Z,13.83
2019-03-25T16:44:10.546Z,15.43
2019-03-25T16:46:41.691Z,14.53
2019-03-25T16:49:13.018Z,15.13
2019-03-25T16:51:44.200Z,14.60
2019-03-25T16:54:16.447Z,15.08
2019-03-25T16:56:47.630Z,16.37
2019-03-25T16:59:18.716Z,16.48
2019-03-25T17:01:50.021Z,15.85
2019-03-25T17:04:21.145Z,15.88
2019-03-25T17:06:52.303Z,16.93
2019-03-25T17:09:25.079Z,17.17
2019-03-25T17:11:56.308Z,18.00
2019-03-25T17:14:27.572Z,19.35
2019-03-25T17:16:58.844Z,17.02
2019-03-25T17:19:30.084Z,17.55
2019-03-25T17:22:01.194Z,16.90
2019-03-25T17:24:32.471Z,16.65
2019-03-25T17:27:06.537Z,15.18
2019-03-25T17:29:39.819Z,13.95
2019-03-25T17:32:13.883Z,13.45
2019-03-25T17:34:45.100Z,13.80
2019-03-25T17:37:17.458Z,13.90
2019-03-25T17:39:49.859Z,13.72
2019-03-25T17:42:20.999Z,13.83
2019-03-25T17:44:53.381Z,13.55
2019-03-25T17:47:24.575Z,12.50
2019-03-25T17:49:55.848Z,12.90
2019-03-25T17:52:27.237Z,12.53
2019-03-25T17:54:58.649Z,11.80
2019-03-25T17:57:30.158Z,10.85
2019-03-25T18:00:03.357Z,11.48
2019-03-25T18:02:38.719Z,11.18
2019-03-25T18:05:09.861Z,12.65
2019-03-25T18:07:42.970Z,11.73
2019-03-25T18:10:17.076Z,12.25
2019-03-25T18:12:48.228Z,12.82
2019-03-25T18:15:20.649Z,12.82
2019-03-25T18:17:51.964Z,14.10
2019-03-25T18:20:23.167Z,12.82
2019-03-25T18:22:54.833Z,12.05
2019-03-25T18:25:29.590Z,13.55
2019-03-25T18:28:00.713Z,12.47
2019-03-25T18:30:33.000Z,12.82
2019-03-25T18:33:04.245Z,11.50
2019-03-25T18:35:37.104Z,12.28
2019-03-25T18:38:08.255Z,11.45
2019-03-25T18:40:39.316Z,12.23
2019-03-25T18:43:10.581Z,12.80
2019-03-25T18:45:41.948Z,12.33
2019-03-25T18:48:13.146Z,11.12
2019-03-25T18:50:44.462Z,13.50
2019-03-25T18:53:15.599Z,12.98
2019-03-25T18:55:46.806Z,12.50
2019-03-25T18:58:18.302Z,11.75
2019-03-25T19:00:49.758Z,12.20
2019-03-25T19:03:21.051Z,12.33
2019-03-25T19:05:52.306Z,12.33
2019-03-25T19:08:23.579Z,12.65
2019-03-25T19:10:54.761Z,11.60
2019-03-25T19:13:26.508Z,11.73
2019-03-25T19:15:57.580Z,11.48
2019-03-25T19:18:28.884Z,12.20
2019-03-25T19:21:00.224Z,11.97
2019-03-25T19:23:31.274Z,12.18
2019-03-25T19:26:02.425Z,12.40
2019-03-25T19:28:33.523Z,12.40
2019-03-25T19:31:05.503Z,12.50
2019-03-25T19:33:36.617Z,13.38
2019-03-25T19:36:07.825Z,13.53
2019-03-25T19:38:38.908Z,13.35
2019-03-25T19:41:10.067Z,14.75
2019-03-25T19:43:41.353Z,14.68
2019-03-25T19:46:12.494Z,14.20
2019-03-25T19:48:43.689Z,14.35
2019-03-25T19:51:14.771Z,14.45
2019-03-25T19:53:46.246Z,18.02
2019-03-25T19:56:18.269Z,18.40
2019-03-25T19:58:49.827Z,17.32
2019-03-25T20:01:21.199Z,17.60
2019-03-25T20:03:52.344Z,17.73
2019-03-25T20:06:30.087Z,19.20
2019-03-25T20:09:01.722Z,20.68
2019-03-25T20:11:34.580Z,20.17
2019-03-25T20:14:05.587Z,19.65
2019-03-25T20:16:36.866Z,17.25
2019-03-25T20:19:08.129Z,16.52
2019-03-25T20:21:39.637Z,16.57
2019-03-25T20:24:11.004Z,16.30
2019-03-25T20:26:43.432Z,15.28
2019-03-25T20:29:14.575Z,16.32
2019-03-25T20:31:46.005Z,15.80
2019-03-25T20:34:17.267Z,16.70
2019-03-25T20:36:49.608Z,16.82
2019-03-25T20:39:21.203Z,17.57
2019-03-25T20:41:52.362Z,15.80
2019-03-25T20:44:23.793Z,17.07
2019-03-25T20:46:58.997Z,17.20
2019-03-25T20:49:31.079Z,17.27
2019-03-25T20:52:02.625Z,17.52
2019-03-25T20:54:33.746Z,17.55
2019-03-25T20:57:05.147Z,17.80
2019-03-25T20:59:36.480Z,17.60
2019-03-25T21:02:08.902Z,17.37
2019-03-25T21:04:40.193Z,16.67
2019-03-25T21:07:12.544Z,17.12
2019-03-25T21:09:43.849Z,15.03
2019-03-25T21:12:15.785Z,15.95
2019-03-25T21:14:48.103Z,16.23
2019-03-25T21:17:24.715Z,17.20
2019-03-25T21:19:57.255Z,16.75
2019-03-25T21:22:28.570Z,15.68
2019-03-25T21:24:59.784Z,16.93
2019-03-25T21:27:31.096Z,15.45
2019-03-25T21:30:02.309Z,14.87
2019-03-25T21:32:34.709Z,13.20
2019-03-25T21:35:06.768Z,11.53
2019-03-25T21:37:38.295Z,10.32
2019-03-25T21:40:11.011Z,10.35
2019-03-25T21:42:42.502Z,9.18
2019-03-25T21:45:13.558Z,9.78
2019-03-25T21:47:47.859Z,9.53
2019-03-25T21:50:19.298Z,9.58
2019-03-25T21:52:50.399Z,9.35
2019-03-25T21:55:21.646Z,9.48
2019-03-25T21:57:53.895Z,9.18
2019-03-25T22:00:26.708Z,8.93
2019-03-25T22:03:11.027Z,11.05
2019-03-25T22:05:31.251Z,10.53
2019-03-25T22:08:02.303Z,9.38
2019-03-25T22:10:34.793Z,10.03
2019-03-25T22:13:09.714Z,9.75
2019-03-25T22:15:41.074Z,8.73
2019-03-25T22:18:12.365Z,8.43
2019-03-25T22:20:43.520Z,8.10
2019-03-25T22:23:14.755Z,8.43
2019-03-25T22:25:45.875Z,8.40
2019-03-25T22:28:17.025Z,7.67
2019-03-25T22:30:48.127Z,7.47
2019-03-25T22:33:25.692Z,7.83
2019-03-25T22:35:52.034Z,8.25
2019-03-25T22:38:23.131Z,7.47
2019-03-25T22:40:54.129Z,7.55
2019-03-25T22:43:25.300Z,7.55
2019-03-25T22:45:56.580Z,7.85
2019-03-25T22:48:27.567Z,7.83
2019-03-25T22:50:58.810Z,8.58
2019-03-25T22:53:30.944Z,8.58
2019-03-25T22:56:02.074Z,7.75
2019-03-25T22:58:34.161Z,7.83
2019-03-25T23:01:05.504Z,7.40
2019-03-25T23:03:39.428Z,7.35
2019-03-25T23:06:09.422Z,7.60
2019-03-25T23:08:40.513Z,7.72
2019-03-25T23:11:13.968Z,7.28
2019-03-25T23:13:45.053Z,7.37
2019-03-25T23:16:16.257Z,6.70
2019-03-25T23:18:47.486Z,7.00
2019-03-25T23:21:18.678Z,6.85
2019-03-25T23:23:49.863Z,23.40
2019-03-25T23:26:21.129Z,7.45
2019-03-25T23:28:53.300Z,25.20
2019-03-25T23:31:24.394Z,7.35
2019-03-25T23:33:55.579Z,6.80
2019-03-25T23:36:26.805Z,6.65
2019-03-25T23:38:58.026Z,6.62
2019-03-25T23:41:29.241Z,6.80
2019-03-25T23:44:00.325Z,6.83
2019-03-25T23:46:31.395Z,8.00
2019-03-25T23:49:02.537Z,7.28
2019-03-25T23:51:33.638Z,6.58
2019-03-25T23:54:14.643Z,6.42
2019-03-25T23:56:46.056Z,6.97
2019-03-25T23:59:17.160Z,7.50
